Time;durP1;ratioP1;P1;durP2;ratioP2;P2;SDS_P1;SDS_P2;PMS_P1;PMS_P2;Temp;Humidity;BMP_temperature;BMP_pressure;BME280_temperature;BME280_humidity;BME280_pressure;Samples;Min_cycle;Max_cycle;Signal;HPM_P1;HPM_P2
2022/12/10 07:01:27;;;;;;;;;17.75;13.50;;;;;;;;5119378;24;47307;-64
2022/12/10 07:03:55;;;;;;;;;15.25;12.00;;;;;;;;4700720;30;45496;-63
2022/12/10 07:06:20;;;;;;;;;15.75;12.25;;;;;;;;4701575;30;45559;-63
2022/12/10 07:08:46;;;;;;;;;18.00;16.00;;;;;;;;4696080;30;45503;-63
2022/12/10 07:11:12;;;;;;;;;17.75;13.50;;;;;;;;4697539;30;45496;-65
2022/12/10 07:13:38;;;;;;;;;17.00;16.25;;;;;;;;4701098;30;45420;-63
2022/12/10 07:16:11;;;;;;;;;13.00;13.00;;;;;;;;4699424;30;45461;-64
2022/12/10 07:18:36;;;;;;;;;13.00;12.00;;;;;;;;4699589;30;45513;-63
2022/12/10 07:21:01;;;;;;;;;18.33;15.33;;;;;;;;4700914;30;45386;-64
2022/12/10 07:23:26;;;;;;;;;17.25;14.00;;;;;;;;4702859;30;45446;-64
2022/12/10 07:25:53;;;;;;;;;19.75;15.50;;;;;;;;4703700;30;45412;-63
2022/12/10 07:28:19;;;;;;;;;13.75;13.75;;;;;;;;4704456;30;45334;-63
2022/12/10 07:30:44;;;;;;;;;14.67;12.67;;;;;;;;4704524;30;45222;-64
2022/12/10 07:33:09;;;;;;;;;18.00;15.50;;;;;;;;4704418;30;45728;-63
2022/12/10 07:35:34;;;;;;;;;27.50;21.50;;;;;;;;4704149;30;45268;-64
2022/12/10 07:37:59;;;;;;;;;14.50;12.00;;;;;;;;4704180;30;45294;-64
2022/12/10 07:40:24;;;;;;;;;18.50;15.75;;;;;;;;4704786;30;45543;-63
2022/12/10 07:42:50;;;;;;;;;16.00;13.75;;;;;;;;4703413;30;46289;-64
2022/12/10 07:45:15;;;;;;;;;53.25;35.00;;;;;;;;4704550;30;45527;-63
2022/12/10 07:47:40;;;;;;;;;21.50;16.75;;;;;;;;4704706;30;45358;-64
2022/12/10 07:50:06;;;;;;;;;22.25;17.75;;;;;;;;4704351;30;45462;-63
2022/12/10 07:52:31;;;;;;;;;16.75;16.00;;;;;;;;4702654;30;46160;-63
2022/12/10 07:54:56;;;;;;;;;32.50;26.75;;;;;;;;4703866;30;45388;-64
2022/12/10 07:57:21;;;;;;;;;23.25;18.25;;;;;;;;4704328;30;45491;-64
2022/12/10 07:59:47;;;;;;;;;35.00;29.25;;;;;;;;4703833;30;45452;-64
2022/12/10 08:02:12;;;;;;;;;30.00;23.75;;;;;;;;4703268;30;46287;-64
2022/12/10 08:04:37;;;;;;;;;30.75;28.75;;;;;;;;4704169;30;45357;-64
2022/12/10 08:07:02;;;;;;;;;24.75;19.75;;;;;;;;4701820;30;45317;-63
2022/12/10 08:09:28;;;;;;;;;22.00;17.75;;;;;;;;4698891;30;45373;-63
2022/12/10 08:11:53;;;;;;;;;33.25;30.50;;;;;;;;4697392;30;46189;-64
2022/12/10 08:14:18;;;;;;;;;35.50;34.25;;;;;;;;4700014;30;45388;-64
2022/12/10 08:16:43;;;;;;;;;34.25;27.25;;;;;;;;4699666;30;45569;-66
2022/12/10 08:19:09;;;;;;;;;31.75;22.00;;;;;;;;4703457;30;45294;-61
2022/12/10 08:21:34;;;;;;;;;187.00;146.33;;;;;;;;4700487;30;45654;-63
2022/12/10 08:24:00;;;;;;;;;41.75;34.00;;;;;;;;4706129;30;45538;-64
2022/12/10 08:26:27;;;;;;;;;93.75;75.75;;;;;;;;4713047;30;45348;-63
2022/12/10 08:28:53;;;;;;;;;67.75;53.25;;;;;;;;4703509;30;45214;-63
2022/12/10 08:31:19;;;;;;;;;41.75;36.25;;;;;;;;4703061;30;45954;-63
2022/12/10 08:33:44;;;;;;;;;61.00;47.50;;;;;;;;4703018;30;45387;-63
2022/12/10 08:36:11;;;;;;;;;87.00;66.50;;;;;;;;4703917;30;45362;-63
2022/12/10 08:38:36;;;;;;;;;79.25;58.25;;;;;;;;4703972;30;45346;-63
2022/12/10 08:41:12;;;;;;;;;59.25;45.75;;;;;;;;4702497;30;46276;-63
2022/12/10 08:43:38;;;;;;;;;55.25;41.75;;;;;;;;4702013;30;45374;-63
2022/12/10 08:46:03;;;;;;;;;37.75;32.50;;;;;;;;4703006;30;45495;-63
2022/12/10 08:48:29;;;;;;;;;21.33;15.67;;;;;;;;4699720;30;45424;-63
2022/12/10 08:50:54;;;;;;;;;37.25;23.75;;;;;;;;4702882;30;46386;-63
2022/12/10 08:53:19;;;;;;;;;19.67;15.00;;;;;;;;4699170;30;45863;-63
2022/12/10 08:55:45;;;;;;;;;26.50;17.25;;;;;;;;4702796;30;45599;-63
2022/12/10 08:58:10;;;;;;;;;14.67;13.33;;;;;;;;4695670;30;45453;-63
2022/12/10 09:00:35;;;;;;;;;20.00;18.00;;;;;;;;4692164;30;46105;-62
2022/12/10 09:03:01;;;;;;;;;21.75;20.00;;;;;;;;4702353;30;45397;-63
2022/12/10 09:05:26;;;;;;;;;20.33;18.00;;;;;;;;4703284;30;45307;-62
2022/12/10 09:07:51;;;;;;;;;29.00;21.33;;;;;;;;4703045;30;45262;-62
2022/12/10 09:10:16;;;;;;;;;19.50;16.75;;;;;;;;4700998;30;45271;-63
2022/12/10 09:12:41;;;;;;;;;22.25;17.25;;;;;;;;4702992;30;45379;-63
2022/12/10 09:15:08;;;;;;;;;23.33;19.33;;;;;;;;4702782;30;45471;-63
2022/12/10 09:17:34;;;;;;;;;29.25;22.50;;;;;;;;4703201;30;45730;-63
2022/12/10 09:19:59;;;;;;;;;20.25;19.75;;;;;;;;4702354;30;45490;-63
2022/12/10 09:22:24;;;;;;;;;27.50;23.25;;;;;;;;4702936;30;45397;-63
2022/12/10 09:24:50;;;;;;;;;29.00;24.00;;;;;;;;4701528;30;45198;-64
2022/12/10 09:27:15;;;;;;;;;23.33;19.00;;;;;;;;4703233;30;45230;-63
2022/12/10 09:29:40;;;;;;;;;23.67;21.67;;;;;;;;4702825;30;46116;-59
2022/12/10 09:32:05;;;;;;;;;23.00;19.67;;;;;;;;4700079;30;45500;-62
2022/12/10 09:34:30;;;;;;;;;27.00;20.00;;;;;;;;4692599;30;45509;-62
2022/12/10 09:36:56;;;;;;;;;28.75;20.25;;;;;;;;4698255;30;45483;-61
2022/12/10 09:39:21;;;;;;;;;34.50;26.25;;;;;;;;4702839;30;46675;-61
2022/12/10 09:42:07;;;;;;;;;23.67;21.33;;;;;;;;4702304;30;45685;-61
2022/12/10 09:44:49;;;;;;;;;25.75;20.50;;;;;;;;4702604;30;45317;-61
2022/12/10 09:47:14;;;;;;;;;29.50;26.25;;;;;;;;4689193;30;45540;-61
2022/12/10 09:49:47;;;;;;;;;31.75;25.25;;;;;;;;4696662;30;45552;-61
2022/12/10 09:52:14;;;;;;;;;38.50;31.00;;;;;;;;4700946;30;45669;-61
2022/12/10 09:54:49;;;;;;;;;29.25;24.25;;;;;;;;4701936;30;45472;-61
2022/12/10 09:57:34;;;;;;;;;29.50;23.00;;;;;;;;4700840;30;45636;-61
2022/12/10 10:00:03;;;;;;;;;27.00;26.00;;;;;;;;4697046;30;45564;-61
2022/12/10 10:02:29;;;;;;;;;30.50;27.25;;;;;;;;4701664;30;45377;-60
2022/12/10 10:04:59;;;;;;;;;27.00;20.25;;;;;;;;4701781;30;45350;-61
2022/12/10 10:07:26;;;;;;;;;30.25;24.00;;;;;;;;4702433;30;45651;-60
2022/12/10 10:10:14;;;;;;;;;33.75;23.50;;;;;;;;4698195;30;46030;-61
2022/12/10 10:12:40;;;;;;;;;31.00;25.00;;;;;;;;4687601;30;45679;-61
2022/12/10 10:15:28;;;;;;;;;26.50;22.50;;;;;;;;4699482;30;45381;-61
2022/12/10 10:17:54;;;;;;;;;37.50;28.00;;;;;;;;4683448;30;45783;-61
2022/12/10 10:20:20;;;;;;;;;34.00;31.67;;;;;;;;4701504;30;46242;-61
2022/12/10 10:22:45;;;;;;;;;24.33;22.33;;;;;;;;4699389;30;45527;-61
2022/12/10 10:25:14;;;;;;;;;30.33;23.67;;;;;;;;4699236;30;45411;-61
2022/12/10 10:27:40;;;;;;;;;33.25;21.75;;;;;;;;4702007;30;45361;-61
2022/12/10 10:30:06;;;;;;;;;39.75;29.50;;;;;;;;4700071;30;46355;-61
2022/12/10 10:32:34;;;;;;;;;26.33;23.33;;;;;;;;4698490;30;46017;-62
2022/12/10 10:35:00;;;;;;;;;28.00;24.33;;;;;;;;4693079;30;45682;-61
2022/12/10 10:37:25;;;;;;;;;24.33;21.00;;;;;;;;4698935;30;45399;-61
2022/12/10 10:39:51;;;;;;;;;26.67;23.33;;;;;;;;4695071;30;45475;-61
2022/12/10 10:42:25;;;;;;;;;25.33;20.67;;;;;;;;4700625;30;45472;-61
2022/12/10 10:44:50;;;;;;;;;31.67;24.67;;;;;;;;4697331;30;45305;-61
2022/12/10 10:47:26;;;;;;;;;31.00;27.67;;;;;;;;4701850;30;45403;-61
2022/12/10 10:49:53;;;;;;;;;41.25;35.25;;;;;;;;4700736;30;47116;-61
2022/12/10 10:52:18;;;;;;;;;32.75;29.00;;;;;;;;4701487;30;45480;-61
2022/12/10 10:54:44;;;;;;;;;44.00;33.25;;;;;;;;4701380;30;45282;-61
2022/12/10 10:57:20;;;;;;;;;45.25;37.25;;;;;;;;4702775;30;45372;-62
2022/12/10 10:59:46;;;;;;;;;58.50;42.75;;;;;;;;4702977;30;45325;-61
2022/12/10 11:02:14;;;;;;;;;36.50;32.50;;;;;;;;4700920;30;45315;-64
2022/12/10 11:04:47;;;;;;;;;34.75;31.75;;;;;;;;4700439;30;45670;-63
2022/12/10 11:07:33;;;;;;;;;39.25;29.75;;;;;;;;4704691;30;45464;-61
2022/12/10 11:09:58;;;;;;;;;30.33;27.00;;;;;;;;4690429;30;46998;-62
2022/12/10 11:12:50;;;;;;;;;29.00;24.00;;;;;;;;4693517;30;45446;-62
2022/12/10 11:15:21;;;;;;;;;32.67;24.33;;;;;;;;4667091;30;45510;-62
2022/12/10 11:17:48;;;;;;;;;30.33;27.00;;;;;;;;4698067;30;45556;-62
2022/12/10 11:20:21;;;;;;;;;29.67;26.33;;;;;;;;4696180;30;47237;-62
2022/12/10 11:22:51;;;;;;;;;33.67;26.67;;;;;;;;4696139;30;45531;-66
2022/12/10 11:25:17;;;;;;;;;26.33;22.33;;;;;;;;4699374;30;45509;-66
2022/12/10 11:27:45;;;;;;;;;30.67;23.67;;;;;;;;4696463;30;45471;-66
2022/12/10 11:30:12;;;;;;;;;36.00;32.00;;;;;;;;4700570;30;46448;-66
2022/12/10 11:32:38;;;;;;;;;34.00;30.00;;;;;;;;4696362;30;45577;-66
2022/12/10 11:35:18;;;;;;;;;34.67;31.33;;;;;;;;4699116;30;45221;-66
2022/12/10 11:38:02;;;;;;;;;36.67;28.33;;;;;;;;4691264;30;45507;-66
2022/12/10 11:40:33;;;;;;;;;29.33;26.00;;;;;;;;4696084;30;46160;-67
2022/12/10 11:42:58;;;;;;;;;33.67;32.33;;;;;;;;4700387;30;45475;-67
2022/12/10 11:45:37;;;;;;;;;34.67;32.00;;;;;;;;4703869;30;45535;-66
2022/12/10 11:48:06;;;;;;;;;27.67;23.67;;;;;;;;4702321;30;45643;-66
2022/12/10 11:50:41;;;;;;;;;31.00;27.00;;;;;;;;4699452;30;46159;-66
2022/12/10 11:53:09;;;;;;;;;30.00;27.33;;;;;;;;4702802;30;45495;-66
2022/12/10 11:55:46;;;;;;;;;35.00;28.00;;;;;;;;4701055;30;45285;-66
2022/12/10 11:58:28;;;;;;;;;32.33;28.00;;;;;;;;4700610;30;45290;-66
2022/12/10 12:01:02;;;;;;;;;28.00;25.67;;;;;;;;4695127;30;46220;-67
2022/12/10 12:03:39;;;;;;;;;31.33;29.33;;;;;;;;4696687;30;45407;-67
2022/12/10 12:06:18;;;;;;;;;31.33;27.33;;;;;;;;4698610;30;46667;-67
2022/12/10 12:08:47;;;;;;;;;33.67;28.33;;;;;;;;4698330;30;45502;-67
2022/12/10 12:11:15;;;;;;;;;36.00;28.33;;;;;;;;4695970;30;46049;-68
2022/12/10 12:14:00;;;;;;;;;30.33;25.33;;;;;;;;4697190;30;45384;-68
2022/12/10 12:16:37;;;;;;;;;34.33;26.67;;;;;;;;4674324;30;45540;-65
2022/12/10 12:19:11;;;;;;;;;57.50;44.00;;;;;;;;4698417;30;45675;-66
2022/12/10 12:21:37;;;;;;;;;54.00;42.00;;;;;;;;4703458;30;45612;-65
2022/12/10 12:24:21;;;;;;;;;39.00;32.00;;;;;;;;4694735;30;45408;-65
2022/12/10 12:26:49;;;;;;;;;48.25;37.75;;;;;;;;4700797;30;45262;-66
2022/12/10 12:29:23;;;;;;;;;23.33;22.00;;;;;;;;4703403;30;45432;-67
2022/12/10 12:32:01;;;;;;;;;34.00;33.00;;;;;;;;4703057;30;46413;-65
2022/12/10 12:34:28;;;;;;;;;26.00;24.00;;;;;;;;4703090;30;45427;-68
2022/12/10 12:36:53;;;;;;;;;41.00;33.75;;;;;;;;4701814;30;45348;-66
2022/12/10 12:39:37;;;;;;;;;27.00;21.00;;;;;;;;4703268;30;45723;-66
2022/12/10 12:42:13;;;;;;;;;37.33;31.33;;;;;;;;4693581;30;45404;-67
2022/12/10 12:44:52;;;;;;;;;29.67;28.00;;;;;;;;4697180;30;45338;-67
2022/12/10 12:47:35;;;;;;;;;38.00;36.25;;;;;;;;4699088;30;45364;-66
2022/12/10 12:50:01;;;;;;;;;40.50;35.50;;;;;;;;4696112;30;45505;-68
2022/12/10 12:52:26;;;;;;;;;29.33;25.33;;;;;;;;4695251;30;46418;-68
2022/12/10 12:54:53;;;;;;;;;27.00;24.33;;;;;;;;4702318;30;45417;-68
2022/12/10 12:57:44;;;;;;;;;53.50;40.00;;;;;;;;4695571;30;45279;-68
2022/12/10 13:00:11;;;;;;;;;35.67;31.00;;;;;;;;4664578;30;45534;-68
2022/12/10 13:02:59;;;;;;;;;27.33;26.67;;;;;;;;4692365;30;47514;-68
2022/12/10 13:05:29;;;;;;;;;26.00;22.67;;;;;;;;4702339;30;45454;-68
2022/12/10 13:08:13;;;;;;;;;23.33;17.67;;;;;;;;4701928;30;45433;-67
2022/12/10 13:10:58;;;;;;;;;21.33;19.00;;;;;;;;4703049;30;45629;-62
2022/12/10 13:13:34;;;;;;;;;29.33;25.33;;;;;;;;4703124;30;46195;-61
2022/12/10 13:16:18;;;;;;;;;37.75;35.00;;;;;;;;4693451;30;46420;-61
2022/12/10 13:18:44;;;;;;;;;25.33;20.00;;;;;;;;4704833;30;45733;-61
2022/12/10 13:21:16;;;;;;;;;33.67;26.67;;;;;;;;4701687;30;46272;-61
2022/12/10 13:23:54;;;;;;;;;29.67;23.00;;;;;;;;4705299;30;46295;-61
2022/12/10 13:26:28;;;;;;;;;28.67;24.00;;;;;;;;4697602;30;45570;-61
2022/12/10 13:28:54;;;;;;;;;33.67;28.33;;;;;;;;4700937;30;45423;-61
2022/12/10 13:31:34;;;;;;;;;29.00;26.33;;;;;;;;4706628;30;45476;-61
2022/12/10 13:33:59;;;;;;;;;35.67;30.67;;;;;;;;4698789;30;47140;-61
2022/12/10 13:36:26;;;;;;;;;41.67;31.67;;;;;;;;4700916;30;45281;-61
2022/12/10 13:39:11;;;;;;;;;33.67;30.33;;;;;;;;4701341;30;46167;-61
2022/12/10 13:44:48;;;;;;;;;37.00;28.33;;;;;;;;5006920;28;45621;-60
2022/12/10 13:47:31;;;;;;;;;21.67;18.33;;;;;;;;4993535;28;45401;-61
2022/12/10 13:49:57;;;;;;;;;28.67;27.67;;;;;;;;4992012;28;45709;-61
2022/12/10 13:52:27;;;;;;;;;24.33;22.00;;;;;;;;5000607;28;46207;-61
2022/12/10 13:55:02;;;;;;;;;36.00;29.25;;;;;;;;5000212;28;45527;-61
2022/12/10 13:57:27;;;;;;;;;35.33;27.33;;;;;;;;4981284;28;45434;-61
2022/12/10 14:00:08;;;;;;;;;35.00;27.33;;;;;;;;5002210;27;45567;-61
2022/12/10 14:02:48;;;;;;;;;33.67;28.67;;;;;;;;4985086;28;46430;-61
2022/12/10 14:05:13;;;;;;;;;39.33;27.67;;;;;;;;4988083;28;45264;-61
2022/12/10 14:07:43;;;;;;;;;34.00;25.00;;;;;;;;5014045;27;45496;-61
2022/12/10 14:10:14;;;;;;;;;30.33;27.33;;;;;;;;4991416;28;45342;-61
2022/12/10 14:12:41;;;;;;;;;30.67;22.00;;;;;;;;4994107;28;47055;-61
2022/12/10 14:15:07;;;;;;;;;33.75;32.75;;;;;;;;4991110;28;45620;-61
2022/12/10 14:17:36;;;;;;;;;34.33;27.33;;;;;;;;4999774;28;45412;-61
2022/12/10 14:20:03;;;;;;;;;29.33;26.00;;;;;;;;4974076;28;45824;-61
2022/12/10 14:22:31;;;;;;;;;28.75;24.75;;;;;;;;4983319;28;48093;-61
2022/12/10 14:24:58;;;;;;;;;31.33;27.00;;;;;;;;4982922;28;45362;-61
2022/12/10 14:27:25;;;;;;;;;30.33;23.00;;;;;;;;4988275;28;45394;-61
2022/12/10 14:29:52;;;;;;;;;28.00;24.67;;;;;;;;4982928;28;45329;-61
2022/12/10 14:32:19;;;;;;;;;28.00;24.00;;;;;;;;4983912;28;46198;-61
2022/12/10 14:34:51;;;;;;;;;25.67;22.33;;;;;;;;5002011;28;45258;-61
2022/12/10 14:37:18;;;;;;;;;33.33;27.33;;;;;;;;4999440;28;45556;-61
2022/12/10 14:39:43;;;;;;;;;29.75;25.75;;;;;;;;5002939;28;45561;-61
2022/12/10 14:42:14;;;;;;;;;28.67;27.00;;;;;;;;4994157;28;47213;-62
2022/12/10 14:44:40;;;;;;;;;30.00;23.00;;;;;;;;4991704;28;45314;-62
2022/12/10 14:47:06;;;;;;;;;37.67;26.00;;;;;;;;4998877;27;45313;-62
2022/12/10 14:49:31;;;;;;;;;31.00;28.00;;;;;;;;4993496;28;45521;-62
2022/12/10 14:51:57;;;;;;;;;26.00;23.00;;;;;;;;4986670;28;46644;-62
2022/12/10 14:54:31;;;;;;;;;19.67;19.67;;;;;;;;4975989;28;45293;-62
2022/12/10 14:56:57;;;;;;;;;28.33;23.67;;;;;;;;4981098;28;45423;-62
2022/12/10 14:59:29;;;;;;;;;31.00;28.67;;;;;;;;5007856;28;45462;-62
2022/12/10 15:01:56;;;;;;;;;29.67;23.33;;;;;;;;4978638;28;47183;-62
2022/12/10 15:04:24;;;;;;;;;29.00;22.00;;;;;;;;4978074;28;45310;-62
2022/12/10 15:06:49;;;;;;;;;26.33;23.00;;;;;;;;4978118;28;46341;-62
2022/12/10 15:09:18;;;;;;;;;27.67;23.33;;;;;;;;4978383;28;45228;-61
2022/12/10 15:11:44;;;;;;;;;37.50;24.50;;;;;;;;4969812;28;46112;-63
2022/12/10 15:14:17;;;;;;;;;35.25;26.25;;;;;;;;4994942;28;45447;-63
2022/12/10 15:16:43;;;;;;;;;29.50;24.50;;;;;;;;4978091;28;45532;-62
2022/12/10 15:19:23;;;;;;;;;31.25;23.25;;;;;;;;4977154;28;45479;-63
2022/12/10 15:21:49;;;;;;;;;35.00;27.00;;;;;;;;4975984;28;45309;-67
2022/12/10 15:24:35;;;;;;;;;30.25;27.00;;;;;;;;4975079;28;45345;-64
2022/12/10 15:27:00;;;;;;;;;35.75;28.25;;;;;;;;4975511;28;45496;-64
2022/12/10 15:29:25;;;;;;;;;33.25;29.50;;;;;;;;4972503;28;45581;-64
2022/12/10 15:31:55;;;;;;;;;37.50;30.75;;;;;;;;4982832;28;45593;-64
2022/12/10 15:34:20;;;;;;;;;35.25;31.25;;;;;;;;4978122;28;45433;-64
2022/12/10 15:36:50;;;;;;;;;34.50;32.25;;;;;;;;4980513;28;45440;-64
2022/12/10 15:39:30;;;;;;;;;30.00;27.25;;;;;;;;4980542;28;45208;-64
2022/12/10 15:41:56;;;;;;;;;34.75;29.00;;;;;;;;4981880;28;45385;-64
2022/12/10 15:44:32;;;;;;;;;45.75;36.25;;;;;;;;4984942;28;45790;-64
2022/12/10 15:46:57;;;;;;;;;31.25;28.50;;;;;;;;4976414;28;45677;-64
2022/12/10 15:49:22;;;;;;;;;52.50;37.50;;;;;;;;4977781;28;45774;-64
2022/12/10 15:51:47;;;;;;;;;36.75;33.50;;;;;;;;4977255;28;45604;-64
2022/12/10 15:54:19;;;;;;;;;40.25;36.00;;;;;;;;4979394;28;45485;-64
2022/12/10 15:56:44;;;;;;;;;29.75;27.00;;;;;;;;4972308;28;45318;-64
2022/12/10 15:59:09;;;;;;;;;45.75;31.00;;;;;;;;4980599;28;45390;-64
2022/12/10 16:01:35;;;;;;;;;45.25;30.75;;;;;;;;4986322;28;46282;-64
2022/12/10 16:04:00;;;;;;;;;31.75;25.75;;;;;;;;4975757;28;45284;-64
2022/12/10 16:06:25;;;;;;;;;41.00;31.50;;;;;;;;4976321;28;45716;-64
2022/12/10 16:08:50;;;;;;;;;33.75;33.75;;;;;;;;4978981;28;45614;-65
2022/12/10 16:11:18;;;;;;;;;42.50;36.25;;;;;;;;4984784;28;45600;-63
2022/12/10 16:13:47;;;;;;;;;30.25;29.75;;;;;;;;4977000;28;45341;-64
2022/12/10 16:16:13;;;;;;;;;42.75;33.75;;;;;;;;4976879;28;45625;-64
2022/12/10 16:18:38;;;;;;;;;44.75;34.00;;;;;;;;4977410;28;46506;-65
2022/12/10 16:21:04;;;;;;;;;19.25;13.75;;;;;;;;4980587;28;46169;-64
2022/12/10 16:23:30;;;;;;;;;40.25;36.50;;;;;;;;4982345;28;45326;-64
2022/12/10 16:25:55;;;;;;;;;40.75;37.50;;;;;;;;4967776;28;45515;-64
2022/12/10 16:28:21;;;;;;;;;47.25;35.00;;;;;;;;5000295;28;45544;-64
2022/12/10 16:30:50;;;;;;;;;44.00;36.25;;;;;;;;4986967;28;46263;-63
2022/12/10 16:33:17;;;;;;;;;38.25;30.00;;;;;;;;4976806;28;45310;-64
2022/12/10 16:35:43;;;;;;;;;47.00;38.75;;;;;;;;4978454;28;45370;-64
2022/12/10 16:38:08;;;;;;;;;43.50;36.00;;;;;;;;5006701;28;45483;-63
2022/12/10 16:40:34;;;;;;;;;40.50;37.50;;;;;;;;4973435;28;47084;-64
2022/12/10 16:42:59;;;;;;;;;44.75;39.75;;;;;;;;4973414;28;45256;-64
2022/12/10 16:45:30;;;;;;;;;45.00;37.75;;;;;;;;4981909;28;45479;-64
2022/12/10 16:47:56;;;;;;;;;41.25;37.50;;;;;;;;4974795;28;45624;-64
2022/12/10 16:50:22;;;;;;;;;55.75;44.50;;;;;;;;4976634;28;46092;-64
2022/12/10 16:52:47;;;;;;;;;50.25;39.75;;;;;;;;4976242;28;45379;-64
2022/12/10 16:55:14;;;;;;;;;52.75;42.00;;;;;;;;4979625;28;45286;-64
2022/12/10 16:57:44;;;;;;;;;47.00;39.50;;;;;;;;4977002;28;45502;-64
2022/12/10 17:00:10;;;;;;;;;46.25;37.75;;;;;;;;4982841;28;46135;-64
2022/12/10 17:02:35;;;;;;;;;49.00;42.25;;;;;;;;4976089;28;45356;-63
2022/12/10 17:05:00;;;;;;;;;51.25;42.00;;;;;;;;4970256;28;45389;-64
2022/12/10 17:07:25;;;;;;;;;49.75;39.25;;;;;;;;4972890;28;45293;-64
2022/12/10 17:09:51;;;;;;;;;36.50;34.50;;;;;;;;4973608;28;45672;-64
2022/12/10 17:12:16;;;;;;;;;41.25;36.00;;;;;;;;4975058;28;45340;-64
2022/12/10 17:14:46;;;;;;;;;40.50;37.50;;;;;;;;4978490;28;45792;-64
2022/12/10 17:17:11;;;;;;;;;43.00;37.00;;;;;;;;4972498;28;45573;-64
2022/12/10 17:19:38;;;;;;;;;49.00;36.50;;;;;;;;4983552;28;46304;-64
2022/12/10 17:22:04;;;;;;;;;43.00;39.00;;;;;;;;4979054;28;45362;-64
2022/12/10 17:24:30;;;;;;;;;51.00;37.50;;;;;;;;4984827;28;45655;-64
2022/12/10 17:26:58;;;;;;;;;42.75;38.50;;;;;;;;4979224;28;45444;-65
2022/12/10 17:29:31;;;;;;;;;40.00;32.75;;;;;;;;4980371;28;46406;-64
2022/12/10 17:31:56;;;;;;;;;45.50;40.00;;;;;;;;4980311;28;45390;-64
2022/12/10 17:34:23;;;;;;;;;41.00;35.75;;;;;;;;4984816;28;45450;-63
2022/12/10 17:36:48;;;;;;;;;46.50;40.00;;;;;;;;4984315;28;45483;-63
2022/12/10 17:39:14;;;;;;;;;45.25;32.00;;;;;;;;4978618;28;45839;-63
2022/12/10 17:41:40;;;;;;;;;34.00;30.00;;;;;;;;4982242;28;45453;-63
2022/12/10 17:44:05;;;;;;;;;39.75;35.00;;;;;;;;4981317;28;45294;-63
2022/12/10 17:46:30;;;;;;;;;42.25;33.75;;;;;;;;4974785;28;45688;-63
2022/12/10 17:48:56;;;;;;;;;32.25;28.25;;;;;;;;4975045;28;45618;-63
2022/12/10 17:51:21;;;;;;;;;39.25;36.00;;;;;;;;4970745;28;45446;-63
2022/12/10 17:53:46;;;;;;;;;37.00;34.00;;;;;;;;4973942;28;45637;-63
2022/12/10 17:56:17;;;;;;;;;38.75;30.75;;;;;;;;4975103;28;45693;-63
2022/12/10 17:58:42;;;;;;;;;43.00;37.00;;;;;;;;4972086;28;47628;-63
2022/12/10 18:01:09;;;;;;;;;37.75;30.75;;;;;;;;4969021;28;45595;-63
2022/12/10 18:03:34;;;;;;;;;43.75;36.50;;;;;;;;4972093;28;45742;-63
2022/12/10 18:06:00;;;;;;;;;30.25;28.75;;;;;;;;4975165;28;45578;-62
2022/12/10 18:08:25;;;;;;;;;45.00;33.50;;;;;;;;4975337;28;46076;-63
2022/12/10 18:10:52;;;;;;;;;56.00;42.00;;;;;;;;4975517;28;45389;-63
2022/12/10 18:13:19;;;;;;;;;49.00;39.50;;;;;;;;4974651;28;45973;-63
2022/12/10 18:15:44;;;;;;;;;59.50;44.75;;;;;;;;4972449;28;45276;-63
2022/12/10 18:18:10;;;;;;;;;55.00;43.00;;;;;;;;4974628;28;45302;-63
2022/12/10 18:20:37;;;;;;;;;51.50;43.50;;;;;;;;4977877;28;45459;-63
2022/12/10 18:23:03;;;;;;;;;54.75;43.50;;;;;;;;4973856;28;45260;-63
2022/12/10 18:25:28;;;;;;;;;51.75;42.00;;;;;;;;4999435;28;45430;-63
2022/12/10 18:27:54;;;;;;;;;54.50;40.50;;;;;;;;4975526;28;45428;-63
2022/12/10 18:30:21;;;;;;;;;52.50;43.00;;;;;;;;4973498;28;45361;-63
2022/12/10 18:32:47;;;;;;;;;55.50;44.75;;;;;;;;4975292;28;45335;-63
2022/12/10 18:35:13;;;;;;;;;59.25;41.50;;;;;;;;4977433;28;45404;-63
2022/12/10 18:37:38;;;;;;;;;46.75;37.50;;;;;;;;4977804;28;46750;-63
2022/12/10 18:40:08;;;;;;;;;49.00;37.00;;;;;;;;4977141;28;45562;-63
2022/12/10 18:42:33;;;;;;;;;54.25;43.25;;;;;;;;4987039;28;45442;-63
2022/12/10 18:44:58;;;;;;;;;46.25;39.50;;;;;;;;4977992;28;45428;-63
2022/12/10 18:47:23;;;;;;;;;52.25;40.25;;;;;;;;4977639;28;46734;-63
2022/12/10 18:49:48;;;;;;;;;58.75;44.00;;;;;;;;4977088;28;45391;-63
2022/12/10 18:52:15;;;;;;;;;62.50;41.25;;;;;;;;4998084;28;45468;-63
2022/12/10 18:54:41;;;;;;;;;44.75;37.50;;;;;;;;4965419;28;45423;-63
2022/12/10 18:57:06;;;;;;;;;49.50;40.25;;;;;;;;4985493;28;46173;-63
2022/12/10 18:59:31;;;;;;;;;54.75;42.75;;;;;;;;4999627;28;45550;-63
2022/12/10 19:01:56;;;;;;;;;54.00;44.50;;;;;;;;4973853;28;45746;-64
2022/12/10 19:04:21;;;;;;;;;58.75;45.00;;;;;;;;4975671;28;45433;-63
2022/12/10 19:06:47;;;;;;;;;56.75;43.75;;;;;;;;4975320;28;45808;-63
2022/12/10 19:09:16;;;;;;;;;54.25;41.25;;;;;;;;4971708;28;45758;-64
2022/12/10 19:11:42;;;;;;;;;41.75;37.75;;;;;;;;4974523;28;45756;-64
2022/12/10 19:14:07;;;;;;;;;52.25;42.25;;;;;;;;4975763;28;45435;-64
2022/12/10 19:16:32;;;;;;;;;59.00;44.25;;;;;;;;4961978;28;45561;-64
2022/12/10 19:19:01;;;;;;;;;61.25;45.00;;;;;;;;4973928;28;45458;-63
2022/12/10 19:21:26;;;;;;;;;56.50;44.75;;;;;;;;4972117;28;45436;-64
2022/12/10 19:23:51;;;;;;;;;58.50;44.75;;;;;;;;4968451;28;45517;-63
2022/12/10 19:26:25;;;;;;;;;62.25;50.50;;;;;;;;4973116;28;46357;-64
2022/12/10 19:28:50;;;;;;;;;58.75;44.75;;;;;;;;4975680;28;45384;-64
2022/12/10 19:31:16;;;;;;;;;56.75;43.25;;;;;;;;4977430;28;45469;-63
2022/12/10 19:33:41;;;;;;;;;59.50;44.75;;;;;;;;4973693;28;45638;-64
2022/12/10 19:36:20;;;;;;;;;58.00;48.00;;;;;;;;4976209;28;45309;-64
2022/12/10 19:38:45;;;;;;;;;58.50;44.25;;;;;;;;4977113;28;45157;-63
2022/12/10 19:41:10;;;;;;;;;52.25;42.00;;;;;;;;4975520;28;45440;-64
2022/12/10 19:43:36;;;;;;;;;51.75;41.25;;;;;;;;4977719;28;45421;-64
2022/12/10 19:46:01;;;;;;;;;62.75;48.50;;;;;;;;4980504;28;46098;-64
2022/12/10 19:48:26;;;;;;;;;65.50;46.50;;;;;;;;4976283;28;45447;-63
2022/12/10 19:50:51;;;;;;;;;55.50;43.25;;;;;;;;4976802;28;45192;-63
2022/12/10 19:53:16;;;;;;;;;61.50;48.00;;;;;;;;4974787;28;45712;-63
2022/12/10 19:55:42;;;;;;;;;51.75;44.00;;;;;;;;4974344;28;45403;-63
2022/12/10 19:58:09;;;;;;;;;61.25;45.50;;;;;;;;4994115;28;45573;-63
2022/12/10 20:00:34;;;;;;;;;55.75;44.50;;;;;;;;5023694;28;45410;-63
2022/12/10 20:02:59;;;;;;;;;56.25;38.00;;;;;;;;4976874;28;45321;-63
2022/12/10 20:05:25;;;;;;;;;56.25;44.00;;;;;;;;4991996;28;46238;-63
2022/12/10 20:07:50;;;;;;;;;61.25;43.50;;;;;;;;5002677;28;45326;-63
2022/12/10 20:10:18;;;;;;;;;68.75;46.75;;;;;;;;4997274;28;45436;-63
2022/12/10 20:12:44;;;;;;;;;60.00;44.75;;;;;;;;4980194;28;45265;-63
2022/12/10 20:15:09;;;;;;;;;53.75;39.50;;;;;;;;4978501;28;46042;-63
2022/12/10 20:17:34;;;;;;;;;57.75;43.00;;;;;;;;4984017;28;45390;-63
2022/12/10 20:20:00;;;;;;;;;52.00;40.75;;;;;;;;4979590;28;45526;-63
2022/12/10 20:22:25;;;;;;;;;58.50;45.50;;;;;;;;5006989;28;45220;-63
2022/12/10 20:24:50;;;;;;;;;49.25;42.25;;;;;;;;5005099;28;45444;-63
2022/12/10 20:27:16;;;;;;;;;52.25;42.50;;;;;;;;4979324;28;45333;-63
2022/12/10 20:29:41;;;;;;;;;52.50;38.75;;;;;;;;5015981;28;45469;-63
2022/12/10 20:32:07;;;;;;;;;38.75;36.00;;;;;;;;4978855;28;45588;-63
2022/12/10 20:34:33;;;;;;;;;47.50;40.25;;;;;;;;4983596;28;46096;-63
2022/12/10 20:36:58;;;;;;;;;42.00;37.00;;;;;;;;4975248;28;45447;-63
2022/12/10 20:39:25;;;;;;;;;39.50;38.25;;;;;;;;4982430;28;45525;-63
2022/12/10 20:41:51;;;;;;;;;48.50;40.50;;;;;;;;4992704;27;46312;-64
2022/12/10 20:44:17;;;;;;;;;54.00;41.75;;;;;;;;4979827;28;46281;-64
2022/12/10 20:46:42;;;;;;;;;54.25;41.75;;;;;;;;4974635;28;45422;-63
2022/12/10 20:49:09;;;;;;;;;59.25;43.75;;;;;;;;4979744;28;45413;-63
2022/12/10 20:51:34;;;;;;;;;50.50;39.25;;;;;;;;4983541;28;45423;-63
2022/12/10 20:53:59;;;;;;;;;58.75;42.75;;;;;;;;4963928;28;46904;-63
2022/12/10 20:56:25;;;;;;;;;55.75;44.75;;;;;;;;4988781;28;45232;-63
2022/12/10 20:58:50;;;;;;;;;53.75;43.00;;;;;;;;5000906;28;45296;-63
2022/12/10 21:01:16;;;;;;;;;58.00;39.00;;;;;;;;4991663;27;45413;-63
2022/12/10 21:03:41;;;;;;;;;48.00;39.25;;;;;;;;4971971;28;46263;-63
2022/12/10 21:06:09;;;;;;;;;45.50;40.25;;;;;;;;4970565;28;45703;-63
2022/12/10 21:08:34;;;;;;;;;51.25;38.25;;;;;;;;4973283;28;45425;-64
2022/12/10 21:10:59;;;;;;;;;55.00;39.75;;;;;;;;4982459;28;45472;-63
2022/12/10 21:13:26;;;;;;;;;54.25;41.00;;;;;;;;4976872;28;47018;-63
2022/12/10 21:15:53;;;;;;;;;48.00;35.50;;;;;;;;4968714;28;45292;-64
2022/12/10 21:18:19;;;;;;;;;31.50;27.00;;;;;;;;4973308;28;45316;-63
2022/12/10 21:20:44;;;;;;;;;58.25;40.75;;;;;;;;4973888;28;45216;-64
2022/12/10 21:23:11;;;;;;;;;55.75;44.00;;;;;;;;4985165;28;46257;-63
2022/12/10 21:25:37;;;;;;;;;57.00;43.25;;;;;;;;4963324;28;45468;-63